sensor_id;sensor_type;location;lat;lon;timestamp;temperature;humidity
11320;DHT22;5715;48.234;14.320;2024-03-22T00:01:31;9.70;99.90
11320;DHT22;5715;48.234;14.320;2024-03-22T00:04:17;9.80;99.90
11320;DHT22;5715;48.234;14.320;2024-03-22T00:07:04;9.80;99.90
11320;DHT22;5715;48.234;14.320;2024-03-22T00:09:51;9.80;99.90
11320;DHT22;5715;48.234;14.320;2024-03-22T00:12:37;9.70;99.90
11320;DHT22;5715;48.234;14.320;2024-03-22T00:15:24;9.70;99.90
11320;DHT22;5715;48.234;14.320;2024-03-22T00:18:11;9.70;99.90
11320;DHT22;5715;48.234;14.320;2024-03-22T00:20:58;9.70;99.90
11320;DHT22;5715;48.234;14.320;2024-03-22T00:23:45;9.60;99.90
11320;DHT22;5715;48.234;14.320;2024-03-22T00:26:32;9.60;99.90
11320;DHT22;5715;48.234;14.320;2024-03-22T00:29:19;9.60;99.90
11320;DHT22;5715;48.234;14.320;2024-03-22T00:32:06;9.60;99.90
11320;DHT22;5715;48.234;14.320;2024-03-22T00:34:53;9.50;99.90
11320;DHT22;5715;48.234;14.320;2024-03-22T00:37:40;9.50;99.90
11320;DHT22;5715;48.234;14.320;2024-03-22T00:40:27;9.60;99.90
11320;DHT22;5715;48.234;14.320;2024-03-22T00:43:13;9.50;99.90
11320;DHT22;5715;48.234;14.320;2024-03-22T00:46:00;9.50;99.90
11320;DHT22;5715;48.234;14.320;2024-03-22T00:48:48;9.50;99.90
11320;DHT22;5715;48.234;14.320;2024-03-22T00:51:35;9.40;99.90
11320;DHT22;5715;48.234;14.320;2024-03-22T00:54:22;9.30;99.90
11320;DHT22;5715;48.234;14.320;2024-03-22T00:57:08;9.20;99.90
11320;DHT22;5715;48.234;14.320;2024-03-22T00:59:55;9.10;99.90
11320;DHT22;5715;48.234;14.320;2024-03-22T01:02:42;9.00;99.90
11320;DHT22;5715;48.234;14.320;2024-03-22T01:05:29;8.90;99.90
11320;DHT22;5715;48.234;14.320;2024-03-22T01:08:16;8.80;99.90
11320;DHT22;5715;48.234;14.320;2024-03-22T01:11:03;8.60;99.90
11320;DHT22;5715;48.234;14.320;2024-03-22T01:13:49;8.50;99.90
11320;DHT22;5715;48.234;14.320;2024-03-22T01:16:36;8.40;99.90
11320;DHT22;5715;48.234;14.320;2024-03-22T01:19:23;8.30;99.90
11320;DHT22;5715;48.234;14.320;2024-03-22T01:22:10;8.20;99.90
11320;DHT22;5715;48.234;14.320;2024-03-22T01:24:56;8.20;99.90
11320;DHT22;5715;48.234;14.320;2024-03-22T01:27:43;8.10;99.90
11320;DHT22;5715;48.234;14.320;2024-03-22T01:30:29;8.00;99.90
11320;DHT22;5715;48.234;14.320;2024-03-22T01:33:16;7.90;99.90
11320;DHT22;5715;48.234;14.320;2024-03-22T01:36:03;7.90;99.90
11320;DHT22;5715;48.234;14.320;2024-03-22T01:38:51;7.80;99.90
11320;DHT22;5715;48.234;14.320;2024-03-22T01:41:37;7.70;99.90
11320;DHT22;5715;48.234;14.320;2024-03-22T01:44:28;7.70;99.90
11320;DHT22;5715;48.234;14.320;2024-03-22T01:47:16;7.60;99.90
11320;DHT22;5715;48.234;14.320;2024-03-22T01:50:04;7.60;99.90
11320;DHT22;5715;48.234;14.320;2024-03-22T01:52:52;7.50;99.90
11320;DHT22;5715;48.234;14.320;2024-03-22T01:55:39;7.40;99.90
11320;DHT22;5715;48.234;14.320;2024-03-22T01:58:26;7.30;99.90
11320;DHT22;5715;48.234;14.320;2024-03-22T02:01:12;7.30;99.90
11320;DHT22;5715;48.234;14.320;2024-03-22T02:03:59;7.20;99.90
11320;DHT22;5715;48.234;14.320;2024-03-22T02:06:46;7.20;99.90
11320;DHT22;5715;48.234;14.320;2024-03-22T02:09:33;7.10;99.90
11320;DHT22;5715;48.234;14.320;2024-03-22T02:12:19;7.10;99.90
11320;DHT22;5715;48.234;14.320;2024-03-22T02:15:07;7.10;99.90
11320;DHT22;5715;48.234;14.320;2024-03-22T02:17:54;7.00;99.90
11320;DHT22;5715;48.234;14.320;2024-03-22T02:20:41;7.00;99.90
11320;DHT22;5715;48.234;14.320;2024-03-22T02:23:45;6.90;99.90
11320;DHT22;5715;48.234;14.320;2024-03-22T02:26:32;6.90;99.90
11320;DHT22;5715;48.234;14.320;2024-03-22T02:29:19;6.80;99.90
11320;DHT22;5715;48.234;14.320;2024-03-22T02:32:06;6.80;99.90
11320;DHT22;5715;48.234;14.320;2024-03-22T02:34:53;6.80;99.90
11320;DHT22;5715;48.234;14.320;2024-03-22T02:37:40;6.70;99.90
11320;DHT22;5715;48.234;14.320;2024-03-22T02:40:26;6.70;99.90
11320;DHT22;5715;48.234;14.320;2024-03-22T02:43:13;6.60;99.90
11320;DHT22;5715;48.234;14.320;2024-03-22T02:46:00;6.50;99.90
11320;DHT22;5715;48.234;14.320;2024-03-22T02:48:46;6.50;99.90
11320;DHT22;5715;48.234;14.320;2024-03-22T02:51:33;6.40;99.90
11320;DHT22;5715;48.234;14.320;2024-03-22T02:54:20;6.40;99.90
11320;DHT22;5715;48.234;14.320;2024-03-22T02:57:06;6.30;99.90
11320;DHT22;5715;48.234;14.320;2024-03-22T02:59:53;6.30;99.90
11320;DHT22;5715;48.234;14.320;2024-03-22T03:02:40;6.30;99.90
11320;DHT22;5715;48.234;14.320;2024-03-22T03:05:26;6.30;99.90
11320;DHT22;5715;48.234;14.320;2024-03-22T03:08:13;6.20;99.90
11320;DHT22;5715;48.234;14.320;2024-03-22T03:10:59;6.20;99.90
11320;DHT22;5715;48.234;14.320;2024-03-22T03:13:46;6.20;99.90
11320;DHT22;5715;48.234;14.320;2024-03-22T03:16:33;6.20;99.90
11320;DHT22;5715;48.234;14.320;2024-03-22T03:19:19;6.20;99.90
11320;DHT22;5715;48.234;14.320;2024-03-22T03:22:06;6.20;99.90
11320;DHT22;5715;48.234;14.320;2024-03-22T03:24:53;6.00;99.90
11320;DHT22;5715;48.234;14.320;2024-03-22T03:27:39;6.20;99.90
11320;DHT22;5715;48.234;14.320;2024-03-22T03:30:26;6.10;99.90
11320;DHT22;5715;48.234;14.320;2024-03-22T03:33:12;6.10;99.90
11320;DHT22;5715;48.234;14.320;2024-03-22T03:35:59;6.10;99.90
11320;DHT22;5715;48.234;14.320;2024-03-22T03:38:46;6.00;99.90
11320;DHT22;5715;48.234;14.320;2024-03-22T03:41:32;6.00;99.90
11320;DHT22;5715;48.234;14.320;2024-03-22T03:44:19;6.00;99.90
11320;DHT22;5715;48.234;14.320;2024-03-22T03:47:06;5.90;99.90
11320;DHT22;5715;48.234;14.320;2024-03-22T03:49:53;5.90;99.90
11320;DHT22;5715;48.234;14.320;2024-03-22T03:52:39;5.90;99.90
11320;DHT22;5715;48.234;14.320;2024-03-22T03:55:26;5.90;99.90
11320;DHT22;5715;48.234;14.320;2024-03-22T03:58:13;5.90;99.90
11320;DHT22;5715;48.234;14.320;2024-03-22T04:01:08;5.80;99.90
11320;DHT22;5715;48.234;14.320;2024-03-22T04:03:55;5.70;99.90
11320;DHT22;5715;48.234;14.320;2024-03-22T04:06:43;5.60;99.90
11320;DHT22;5715;48.234;14.320;2024-03-22T04:09:30;5.60;99.90
11320;DHT22;5715;48.234;14.320;2024-03-22T04:12:17;5.50;99.90
11320;DHT22;5715;48.234;14.320;2024-03-22T04:15:05;5.40;99.90
11320;DHT22;5715;48.234;14.320;2024-03-22T04:17:52;5.30;99.90
11320;DHT22;5715;48.234;14.320;2024-03-22T04:20:39;5.30;99.90
11320;DHT22;5715;48.234;14.320;2024-03-22T04:23:26;5.20;99.90
11320;DHT22;5715;48.234;14.320;2024-03-22T04:26:13;5.20;99.90
11320;DHT22;5715;48.234;14.320;2024-03-22T04:28:59;5.20;99.90
11320;DHT22;5715;48.234;14.320;2024-03-22T04:31:46;5.10;99.90
11320;DHT22;5715;48.234;14.320;2024-03-22T04:34:33;5.10;99.90
11320;DHT22;5715;48.234;14.320;2024-03-22T04:37:20;5.10;99.90
11320;DHT22;5715;48.234;14.320;2024-03-22T04:40:07;5.10;99.90
11320;DHT22;5715;48.234;14.320;2024-03-22T04:42:56;5.20;99.90
11320;DHT22;5715;48.234;14.320;2024-03-22T04:45:46;5.00;99.90
11320;DHT22;5715;48.234;14.320;2024-03-22T04:48:34;5.10;99.90
11320;DHT22;5715;48.234;14.320;2024-03-22T04:51:20;4.90;99.90
11320;DHT22;5715;48.234;14.320;2024-03-22T04:54:07;4.90;99.90
11320;DHT22;5715;48.234;14.320;2024-03-22T04:56:53;4.90;99.90
11320;DHT22;5715;48.234;14.320;2024-03-22T04:59:40;4.90;99.90
11320;DHT22;5715;48.234;14.320;2024-03-22T05:02:27;4.80;99.90
11320;DHT22;5715;48.234;14.320;2024-03-22T05:05:14;4.80;99.90
11320;DHT22;5715;48.234;14.320;2024-03-22T05:08:01;4.80;99.90
11320;DHT22;5715;48.234;14.320;2024-03-22T05:10:47;4.70;99.90
11320;DHT22;5715;48.234;14.320;2024-03-22T05:13:34;4.70;99.90
11320;DHT22;5715;48.234;14.320;2024-03-22T05:16:21;4.70;99.90
11320;DHT22;5715;48.234;14.320;2024-03-22T05:19:10;4.80;99.90
11320;DHT22;5715;48.234;14.320;2024-03-22T05:21:56;4.90;99.90
11320;DHT22;5715;48.234;14.320;2024-03-22T05:24:43;4.90;99.90
11320;DHT22;5715;48.234;14.320;2024-03-22T05:27:33;5.00;99.90
11320;DHT22;5715;48.234;14.320;2024-03-22T05:30:20;5.10;99.90
11320;DHT22;5715;48.234;14.320;2024-03-22T05:33:07;5.20;99.90
11320;DHT22;5715;48.234;14.320;2024-03-22T05:35:53;5.30;99.90
11320;DHT22;5715;48.234;14.320;2024-03-22T05:38:40;5.50;99.90
11320;DHT22;5715;48.234;14.320;2024-03-22T05:41:27;5.50;99.90
11320;DHT22;5715;48.234;14.320;2024-03-22T05:44:13;5.60;99.90
11320;DHT22;5715;48.234;14.320;2024-03-22T05:47:00;5.70;99.90
11320;DHT22;5715;48.234;14.320;2024-03-22T05:49:47;5.80;99.90
11320;DHT22;5715;48.234;14.320;2024-03-22T05:52:34;5.90;99.90
11320;DHT22;5715;48.234;14.320;2024-03-22T05:55:20;6.10;99.90
11320;DHT22;5715;48.234;14.320;2024-03-22T05:58:07;6.30;99.90
11320;DHT22;5715;48.234;14.320;2024-03-22T06:00:55;6.40;99.90
11320;DHT22;5715;48.234;14.320;2024-03-22T06:03:42;6.50;99.90
11320;DHT22;5715;48.234;14.320;2024-03-22T06:06:28;6.70;99.90
11320;DHT22;5715;48.234;14.320;2024-03-22T06:09:15;6.80;99.90
11320;DHT22;5715;48.234;14.320;2024-03-22T06:12:09;6.90;99.90
11320;DHT22;5715;48.234;14.320;2024-03-22T06:14:56;7.10;99.90
11320;DHT22;5715;48.234;14.320;2024-03-22T06:17:43;7.10;99.90
11320;DHT22;5715;48.234;14.320;2024-03-22T06:20:33;7.20;99.90
11320;DHT22;5715;48.234;14.320;2024-03-22T06:23:19;7.30;99.90
11320;DHT22;5715;48.234;14.320;2024-03-22T06:26:06;7.40;99.90
11320;DHT22;5715;48.234;14.320;2024-03-22T06:28:53;7.60;99.90
11320;DHT22;5715;48.234;14.320;2024-03-22T06:31:39;7.70;99.90
11320;DHT22;5715;48.234;14.320;2024-03-22T06:34:26;7.90;99.90
11320;DHT22;5715;48.234;14.320;2024-03-22T06:37:12;8.00;99.90
11320;DHT22;5715;48.234;14.320;2024-03-22T06:39:59;8.10;99.90
11320;DHT22;5715;48.234;14.320;2024-03-22T06:42:46;8.20;99.90
11320;DHT22;5715;48.234;14.320;2024-03-22T06:45:32;8.30;99.90
11320;DHT22;5715;48.234;14.320;2024-03-22T06:48:19;8.40;99.90
11320;DHT22;5715;48.234;14.320;2024-03-22T06:51:05;8.50;99.90
11320;DHT22;5715;48.234;14.320;2024-03-22T06:53:52;8.60;99.90
11320;DHT22;5715;48.234;14.320;2024-03-22T06:56:39;8.80;99.90
11320;DHT22;5715;48.234;14.320;2024-03-22T06:59:25;8.90;99.90
11320;DHT22;5715;48.234;14.320;2024-03-22T07:02:12;9.10;99.90
11320;DHT22;5715;48.234;14.320;2024-03-22T07:05:00;9.20;99.90
11320;DHT22;5715;48.234;14.320;2024-03-22T07:07:47;9.30;99.90
11320;DHT22;5715;48.234;14.320;2024-03-22T07:10:33;9.30;99.90
11320;DHT22;5715;48.234;14.320;2024-03-22T07:13:20;9.40;99.90
11320;DHT22;5715;48.234;14.320;2024-03-22T07:16:07;9.40;99.90
11320;DHT22;5715;48.234;14.320;2024-03-22T07:18:54;9.40;99.90
11320;DHT22;5715;48.234;14.320;2024-03-22T07:21:40;9.60;99.90
11320;DHT22;5715;48.234;14.320;2024-03-22T07:24:27;9.70;99.90
11320;DHT22;5715;48.234;14.320;2024-03-22T07:27:14;9.70;99.90
11320;DHT22;5715;48.234;14.320;2024-03-22T07:30:01;9.80;99.90
11320;DHT22;5715;48.234;14.320;2024-03-22T07:32:48;9.90;99.90
11320;DHT22;5715;48.234;14.320;2024-03-22T07:35:35;10.00;99.90
11320;DHT22;5715;48.234;14.320;2024-03-22T07:38:24;10.20;99.90
11320;DHT22;5715;48.234;14.320;2024-03-22T07:41:11;10.30;99.90
11320;DHT22;5715;48.234;14.320;2024-03-22T07:43:59;10.40;99.90
11320;DHT22;5715;48.234;14.320;2024-03-22T07:46:46;10.50;99.90
11320;DHT22;5715;48.234;14.320;2024-03-22T07:49:33;10.60;99.90
11320;DHT22;5715;48.234;14.320;2024-03-22T07:52:20;10.70;99.90
11320;DHT22;5715;48.234;14.320;2024-03-22T07:55:07;10.80;99.90
11320;DHT22;5715;48.234;14.320;2024-03-22T07:57:54;10.90;99.90
11320;DHT22;5715;48.234;14.320;2024-03-22T08:00:40;11.00;99.90
11320;DHT22;5715;48.234;14.320;2024-03-22T08:03:27;11.30;99.90
11320;DHT22;5715;48.234;14.320;2024-03-22T08:06:13;11.30;99.90
11320;DHT22;5715;48.234;14.320;2024-03-22T08:09:00;11.40;99.90
11320;DHT22;5715;48.234;14.320;2024-03-22T08:11:49;11.50;99.90
11320;DHT22;5715;48.234;14.320;2024-03-22T08:14:35;11.70;99.90
11320;DHT22;5715;48.234;14.320;2024-03-22T08:17:22;11.80;99.90
11320;DHT22;5715;48.234;14.320;2024-03-22T08:20:09;11.90;99.90
11320;DHT22;5715;48.234;14.320;2024-03-22T08:22:56;12.00;99.90
11320;DHT22;5715;48.234;14.320;2024-03-22T08:25:42;12.30;99.90
11320;DHT22;5715;48.234;14.320;2024-03-22T08:28:29;12.40;99.90
11320;DHT22;5715;48.234;14.320;2024-03-22T08:31:16;12.40;99.90
11320;DHT22;5715;48.234;14.320;2024-03-22T08:34:03;12.20;99.90
11320;DHT22;5715;48.234;14.320;2024-03-22T08:36:51;12.30;99.90
11320;DHT22;5715;48.234;14.320;2024-03-22T08:39:38;12.20;99.90
11320;DHT22;5715;48.234;14.320;2024-03-22T08:42:25;12.20;99.90
11320;DHT22;5715;48.234;14.320;2024-03-22T08:45:11;12.00;99.90
11320;DHT22;5715;48.234;14.320;2024-03-22T08:47:58;11.90;99.90
11320;DHT22;5715;48.234;14.320;2024-03-22T08:50:45;11.80;99.90
11320;DHT22;5715;48.234;14.320;2024-03-22T08:53:31;12.00;99.90
11320;DHT22;5715;48.234;14.320;2024-03-22T08:56:18;12.40;99.90
11320;DHT22;5715;48.234;14.320;2024-03-22T08:59:04;12.70;99.90
11320;DHT22;5715;48.234;14.320;2024-03-22T09:01:52;12.90;99.90
11320;DHT22;5715;48.234;14.320;2024-03-22T09:04:39;13.00;99.90
11320;DHT22;5715;48.234;14.320;2024-03-22T09:07:25;13.20;99.90
11320;DHT22;5715;48.234;14.320;2024-03-22T09:10:12;13.50;99.90
11320;DHT22;5715;48.234;14.320;2024-03-22T09:12:59;13.80;99.90
11320;DHT22;5715;48.234;14.320;2024-03-22T09:15:45;13.90;99.90
11320;DHT22;5715;48.234;14.320;2024-03-22T09:18:32;14.10;99.90
11320;DHT22;5715;48.234;14.320;2024-03-22T09:21:19;14.00;99.90
11320;DHT22;5715;48.234;14.320;2024-03-22T09:24:06;14.20;99.90
11320;DHT22;5715;48.234;14.320;2024-03-22T09:26:52;14.50;99.90
11320;DHT22;5715;48.234;14.320;2024-03-22T09:29:39;14.70;99.90
11320;DHT22;5715;48.234;14.320;2024-03-22T09:32:26;14.60;99.90
11320;DHT22;5715;48.234;14.320;2024-03-22T09:35:12;14.90;99.90
11320;DHT22;5715;48.234;14.320;2024-03-22T09:38:03;15.00;99.90
11320;DHT22;5715;48.234;14.320;2024-03-22T09:40:50;14.90;99.90
11320;DHT22;5715;48.234;14.320;2024-03-22T09:43:41;15.20;99.90
11320;DHT22;5715;48.234;14.320;2024-03-22T09:46:31;15.50;99.90
11320;DHT22;5715;48.234;14.320;2024-03-22T09:49:18;15.60;99.90
11320;DHT22;5715;48.234;14.320;2024-03-22T09:52:06;15.80;99.90
11320;DHT22;5715;48.234;14.320;2024-03-22T09:54:54;16.00;99.90
11320;DHT22;5715;48.234;14.320;2024-03-22T09:57:42;16.10;99.90
11320;DHT22;5715;48.234;14.320;2024-03-22T10:00:30;16.30;99.90
11320;DHT22;5715;48.234;14.320;2024-03-22T10:03:17;16.40;99.90
11320;DHT22;5715;48.234;14.320;2024-03-22T10:06:05;16.30;99.90
11320;DHT22;5715;48.234;14.320;2024-03-22T10:08:51;16.30;99.90
11320;DHT22;5715;48.234;14.320;2024-03-22T10:11:38;16.40;99.90
11320;DHT22;5715;48.234;14.320;2024-03-22T10:14:25;16.40;99.90
11320;DHT22;5715;48.234;14.320;2024-03-22T10:17:12;16.60;99.90
11320;DHT22;5715;48.234;14.320;2024-03-22T10:19:59;16.40;99.90
11320;DHT22;5715;48.234;14.320;2024-03-22T10:22:55;16.30;99.90
11320;DHT22;5715;48.234;14.320;2024-03-22T10:25:44;16.30;99.90
11320;DHT22;5715;48.234;14.320;2024-03-22T10:28:30;16.30;99.90
11320;DHT22;5715;48.234;14.320;2024-03-22T10:31:20;16.30;99.90
11320;DHT22;5715;48.234;14.320;2024-03-22T10:34:07;16.40;99.90
11320;DHT22;5715;48.234;14.320;2024-03-22T10:37:00;16.40;99.90
11320;DHT22;5715;48.234;14.320;2024-03-22T10:39:52;16.50;99.90
11320;DHT22;5715;48.234;14.320;2024-03-22T10:42:43;16.60;99.90
11320;DHT22;5715;48.234;14.320;2024-03-22T10:45:31;16.60;99.90
11320;DHT22;5715;48.234;14.320;2024-03-22T10:48:19;16.70;99.90
11320;DHT22;5715;48.234;14.320;2024-03-22T10:51:10;16.80;99.90
11320;DHT22;5715;48.234;14.320;2024-03-22T10:53:57;16.90;99.90
11320;DHT22;5715;48.234;14.320;2024-03-22T10:56:46;17.00;99.90
11320;DHT22;5715;48.234;14.320;2024-03-22T10:59:34;17.00;99.90
11320;DHT22;5715;48.234;14.320;2024-03-22T11:02:24;17.10;99.90
11320;DHT22;5715;48.234;14.320;2024-03-22T11:05:17;17.20;99.90
11320;DHT22;5715;48.234;14.320;2024-03-22T11:08:05;17.30;99.90
11320;DHT22;5715;48.234;14.320;2024-03-22T11:10:52;17.50;99.90
11320;DHT22;5715;48.234;14.320;2024-03-22T11:13:39;17.80;99.90
11320;DHT22;5715;48.234;14.320;2024-03-22T11:16:26;17.90;99.90
11320;DHT22;5715;48.234;14.320;2024-03-22T11:19:13;18.10;99.90
11320;DHT22;5715;48.234;14.320;2024-03-22T11:21:59;18.20;99.90
11320;DHT22;5715;48.234;14.320;2024-03-22T11:24:46;18.00;99.90
11320;DHT22;5715;48.234;14.320;2024-03-22T11:27:33;18.10;99.90
11320;DHT22;5715;48.234;14.320;2024-03-22T11:30:20;18.20;99.90
11320;DHT22;5715;48.234;14.320;2024-03-22T11:33:06;18.30;99.90
11320;DHT22;5715;48.234;14.320;2024-03-22T11:35:54;18.10;99.90
11320;DHT22;5715;48.234;14.320;2024-03-22T11:38:41;17.90;99.90
11320;DHT22;5715;48.234;14.320;2024-03-22T11:41:30;17.80;99.90
11320;DHT22;5715;48.234;14.320;2024-03-22T11:44:18;17.80;99.90
11320;DHT22;5715;48.234;14.320;2024-03-22T11:47:05;17.60;99.90
11320;DHT22;5715;48.234;14.320;2024-03-22T11:49:52;17.50;99.90
11320;DHT22;5715;48.234;14.320;2024-03-22T11:52:43;17.60;99.90
11320;DHT22;5715;48.234;14.320;2024-03-22T11:55:36;17.70;99.90
11320;DHT22;5715;48.234;14.320;2024-03-22T11:58:25;17.70;99.90
11320;DHT22;5715;48.234;14.320;2024-03-22T12:01:14;17.70;99.90
11320;DHT22;5715;48.234;14.320;2024-03-22T12:04:01;17.70;99.90
11320;DHT22;5715;48.234;14.320;2024-03-22T12:06:48;17.80;99.90
11320;DHT22;5715;48.234;14.320;2024-03-22T12:09:35;17.90;99.90
11320;DHT22;5715;48.234;14.320;2024-03-22T12:12:22;17.90;99.90
11320;DHT22;5715;48.234;14.320;2024-03-22T12:15:09;18.10;99.90
11320;DHT22;5715;48.234;14.320;2024-03-22T12:17:56;18.30;99.90
11320;DHT22;5715;48.234;14.320;2024-03-22T12:20:42;18.40;99.90
11320;DHT22;5715;48.234;14.320;2024-03-22T12:23:29;18.50;99.90
11320;DHT22;5715;48.234;14.320;2024-03-22T12:26:15;18.50;99.90
11320;DHT22;5715;48.234;14.320;2024-03-22T12:29:02;18.50;99.90
11320;DHT22;5715;48.234;14.320;2024-03-22T12:31:50;18.70;99.90
11320;DHT22;5715;48.234;14.320;2024-03-22T12:34:37;18.70;99.90
11320;DHT22;5715;48.234;14.320;2024-03-22T12:37:24;18.60;99.90
11320;DHT22;5715;48.234;14.320;2024-03-22T12:40:11;18.40;99.90
11320;DHT22;5715;48.234;14.320;2024-03-22T12:43:00;18.30;99.90
11320;DHT22;5715;48.234;14.320;2024-03-22T12:45:46;18.50;99.90
11320;DHT22;5715;48.234;14.320;2024-03-22T12:48:33;18.60;99.90
11320;DHT22;5715;48.234;14.320;2024-03-22T12:51:20;18.30;99.90
11320;DHT22;5715;48.234;14.320;2024-03-22T12:54:07;18.30;99.90
11320;DHT22;5715;48.234;14.320;2024-03-22T12:56:55;18.40;99.90
11320;DHT22;5715;48.234;14.320;2024-03-22T12:59:41;18.20;99.90
11320;DHT22;5715;48.234;14.320;2024-03-22T13:02:28;18.10;99.90
11320;DHT22;5715;48.234;14.320;2024-03-22T13:05:15;18.10;99.90
11320;DHT22;5715;48.234;14.320;2024-03-22T13:08:01;17.90;99.90
11320;DHT22;5715;48.234;14.320;2024-03-22T13:10:48;17.80;99.90
11320;DHT22;5715;48.234;14.320;2024-03-22T13:13:38;17.60;99.90
11320;DHT22;5715;48.234;14.320;2024-03-22T13:16:25;17.70;99.90
11320;DHT22;5715;48.234;14.320;2024-03-22T13:19:11;17.80;99.90
11320;DHT22;5715;48.234;14.320;2024-03-22T13:21:59;17.90;99.90
11320;DHT22;5715;48.234;14.320;2024-03-22T13:24:46;18.00;99.90
11320;DHT22;5715;48.234;14.320;2024-03-22T13:27:34;18.20;99.90
11320;DHT22;5715;48.234;14.320;2024-03-22T13:30:21;18.30;99.90
11320;DHT22;5715;48.234;14.320;2024-03-22T13:33:08;18.40;99.90
11320;DHT22;5715;48.234;14.320;2024-03-22T13:35:54;18.30;99.90
11320;DHT22;5715;48.234;14.320;2024-03-22T13:38:41;18.20;99.90
11320;DHT22;5715;48.234;14.320;2024-03-22T13:41:28;18.00;99.90
11320;DHT22;5715;48.234;14.320;2024-03-22T13:44:14;18.10;99.90
11320;DHT22;5715;48.234;14.320;2024-03-22T13:47:01;18.00;99.90
11320;DHT22;5715;48.234;14.320;2024-03-22T13:49:54;18.10;99.90
11320;DHT22;5715;48.234;14.320;2024-03-22T13:52:40;18.00;99.90
11320;DHT22;5715;48.234;14.320;2024-03-22T13:55:27;18.00;99.90
11320;DHT22;5715;48.234;14.320;2024-03-22T13:58:14;18.10;99.90
11320;DHT22;5715;48.234;14.320;2024-03-22T14:01:01;18.20;99.90
11320;DHT22;5715;48.234;14.320;2024-03-22T14:03:49;18.20;99.90
11320;DHT22;5715;48.234;14.320;2024-03-22T14:06:36;17.90;99.90
11320;DHT22;5715;48.234;14.320;2024-03-22T14:09:23;18.00;99.90
11320;DHT22;5715;48.234;14.320;2024-03-22T14:12:12;18.00;99.90
11320;DHT22;5715;48.234;14.320;2024-03-22T14:14:58;18.00;99.90
11320;DHT22;5715;48.234;14.320;2024-03-22T14:17:45;18.10;99.90
11320;DHT22;5715;48.234;14.320;2024-03-22T14:20:32;17.90;99.90
11320;DHT22;5715;48.234;14.320;2024-03-22T14:23:19;17.80;99.90
11320;DHT22;5715;48.234;14.320;2024-03-22T14:26:05;17.80;99.90
11320;DHT22;5715;48.234;14.320;2024-03-22T14:28:52;17.80;99.90
11320;DHT22;5715;48.234;14.320;2024-03-22T14:31:39;17.60;99.90
11320;DHT22;5715;48.234;14.320;2024-03-22T14:34:28;17.60;99.90
11320;DHT22;5715;48.234;14.320;2024-03-22T14:37:15;17.70;99.90
11320;DHT22;5715;48.234;14.320;2024-03-22T14:40:01;17.70;99.90
11320;DHT22;5715;48.234;14.320;2024-03-22T14:42:51;17.70;99.90
11320;DHT22;5715;48.234;14.320;2024-03-22T14:45:38;17.80;99.90
11320;DHT22;5715;48.234;14.320;2024-03-22T14:48:25;17.80;99.90
11320;DHT22;5715;48.234;14.320;2024-03-22T14:51:11;17.80;99.90
11320;DHT22;5715;48.234;14.320;2024-03-22T14:53:58;17.70;99.90
11320;DHT22;5715;48.234;14.320;2024-03-22T14:56:45;17.90;99.90
11320;DHT22;5715;48.234;14.320;2024-03-22T14:59:32;17.90;99.90
11320;DHT22;5715;48.234;14.320;2024-03-22T15:02:18;17.90;99.90
11320;DHT22;5715;48.234;14.320;2024-03-22T15:05:05;18.00;99.90
11320;DHT22;5715;48.234;14.320;2024-03-22T15:07:52;18.00;99.90
11320;DHT22;5715;48.234;14.320;2024-03-22T15:10:39;18.00;99.90
11320;DHT22;5715;48.234;14.320;2024-03-22T15:13:25;18.10;99.90
11320;DHT22;5715;48.234;14.320;2024-03-22T15:16:12;18.10;99.90
11320;DHT22;5715;48.234;14.320;2024-03-22T15:18:59;17.80;99.90
11320;DHT22;5715;48.234;14.320;2024-03-22T15:21:46;17.90;99.90
11320;DHT22;5715;48.234;14.320;2024-03-22T15:24:32;17.80;99.90
11320;DHT22;5715;48.234;14.320;2024-03-22T15:27:19;17.90;99.90
11320;DHT22;5715;48.234;14.320;2024-03-22T15:30:06;17.90;99.90
11320;DHT22;5715;48.234;14.320;2024-03-22T15:32:53;17.90;99.90
11320;DHT22;5715;48.234;14.320;2024-03-22T15:35:41;17.70;99.90
11320;DHT22;5715;48.234;14.320;2024-03-22T15:38:33;17.80;99.90
11320;DHT22;5715;48.234;14.320;2024-03-22T15:41:20;17.70;99.90
11320;DHT22;5715;48.234;14.320;2024-03-22T15:44:07;17.70;99.90
11320;DHT22;5715;48.234;14.320;2024-03-22T15:46:54;17.80;99.90
11320;DHT22;5715;48.234;14.320;2024-03-22T15:49:46;17.90;99.90
11320;DHT22;5715;48.234;14.320;2024-03-22T15:52:32;17.90;99.90
11320;DHT22;5715;48.234;14.320;2024-03-22T15:55:20;17.90;99.90
11320;DHT22;5715;48.234;14.320;2024-03-22T15:58:06;17.90;99.90
11320;DHT22;5715;48.234;14.320;2024-03-22T16:00:53;17.80;99.90
11320;DHT22;5715;48.234;14.320;2024-03-22T16:03:40;17.70;99.90
11320;DHT22;5715;48.234;14.320;2024-03-22T16:06:26;17.70;99.90
11320;DHT22;5715;48.234;14.320;2024-03-22T16:09:13;17.70;99.90
11320;DHT22;5715;48.234;14.320;2024-03-22T16:12:00;17.70;99.90
11320;DHT22;5715;48.234;14.320;2024-03-22T16:14:46;17.40;99.90
11320;DHT22;5715;48.234;14.320;2024-03-22T16:17:33;17.30;99.90
11320;DHT22;5715;48.234;14.320;2024-03-22T16:20:20;17.10;99.90
11320;DHT22;5715;48.234;14.320;2024-03-22T16:23:07;17.00;99.90
11320;DHT22;5715;48.234;14.320;2024-03-22T16:25:54;16.90;99.90
11320;DHT22;5715;48.234;14.320;2024-03-22T16:28:40;16.80;99.90
11320;DHT22;5715;48.234;14.320;2024-03-22T16:31:27;16.60;99.90
11320;DHT22;5715;48.234;14.320;2024-03-22T16:34:13;16.50;99.90
11320;DHT22;5715;48.234;14.320;2024-03-22T16:37:01;16.30;99.90
11320;DHT22;5715;48.234;14.320;2024-03-22T16:39:47;16.30;99.90
11320;DHT22;5715;48.234;14.320;2024-03-22T16:42:46;16.20;99.90
11320;DHT22;5715;48.234;14.320;2024-03-22T16:45:34;16.00;99.90
11320;DHT22;5715;48.234;14.320;2024-03-22T16:48:20;16.00;99.90
11320;DHT22;5715;48.234;14.320;2024-03-22T16:51:07;15.90;99.90
11320;DHT22;5715;48.234;14.320;2024-03-22T16:53:54;15.80;99.90
11320;DHT22;5715;48.234;14.320;2024-03-22T16:56:41;15.70;99.90
11320;DHT22;5715;48.234;14.320;2024-03-22T16:59:28;15.50;99.90
11320;DHT22;5715;48.234;14.320;2024-03-22T17:02:15;15.50;99.90
11320;DHT22;5715;48.234;14.320;2024-03-22T17:05:02;15.30;99.90
11320;DHT22;5715;48.234;14.320;2024-03-22T17:07:52;15.20;99.90
11320;DHT22;5715;48.234;14.320;2024-03-22T17:10:42;15.00;99.90
11320;DHT22;5715;48.234;14.320;2024-03-22T17:13:28;14.90;99.90
11320;DHT22;5715;48.234;14.320;2024-03-22T17:16:15;14.70;99.90
11320;DHT22;5715;48.234;14.320;2024-03-22T17:19:02;14.50;99.90
11320;DHT22;5715;48.234;14.320;2024-03-22T17:21:49;14.30;99.90
11320;DHT22;5715;48.234;14.320;2024-03-22T17:24:36;14.20;99.90
11320;DHT22;5715;48.234;14.320;2024-03-22T17:27:22;14.00;99.90
11320;DHT22;5715;48.234;14.320;2024-03-22T17:30:09;13.90;99.90
11320;DHT22;5715;48.234;14.320;2024-03-22T17:32:56;13.70;99.90
11320;DHT22;5715;48.234;14.320;2024-03-22T17:35:43;13.60;99.90
11320;DHT22;5715;48.234;14.320;2024-03-22T17:38:30;13.50;99.90
11320;DHT22;5715;48.234;14.320;2024-03-22T17:41:16;13.40;99.90
11320;DHT22;5715;48.234;14.320;2024-03-22T17:44:03;13.30;99.90